createdAt,value
2015-02-19T07:10:58.464Z,19.4
2015-02-19T07:11:16.638Z,19.4
2015-02-19T07:11:34.966Z,19.4
2015-02-19T07:11:53.294Z,19.4
2015-02-19T07:12:11.622Z,19.4
2015-02-19T07:12:29.953Z,19.4
2015-02-19T07:12:48.281Z,19.4
2015-02-19T07:13:06.609Z,19.4
2015-02-19T07:13:24.924Z,19.4
2015-02-19T07:13:43.252Z,19.4
2015-02-19T07:14:01.564Z,19.4
2015-02-19T07:14:19.910Z,19.4
2015-02-19T07:14:38.223Z,19.4
2015-02-19T07:14:55.895Z,19.4
2015-02-19T07:15:14.363Z,19.4
2015-02-19T07:15:32.023Z,19.4
2015-02-19T07:15:50.351Z,19.4
2015-02-19T07:16:08.679Z,19.4
2015-02-19T07:16:26.337Z,19.4
2015-02-19T07:16:43.368Z,19.4
2015-02-19T07:17:01.696Z,19.4
2015-02-19T07:17:20.027Z,19.4
2015-02-19T07:17:38.355Z,19.4
2015-02-19T07:17:56.683Z,19.4
2015-02-19T07:18:15.011Z,19.4
2015-02-19T07:18:33.341Z,19.4
2015-02-19T07:18:51.497Z,19.4
2015-02-19T07:19:09.825Z,19.4
2015-02-19T07:19:27.516Z,19.4
2015-02-19T07:19:45.844Z,19.4
2015-02-19T07:20:03.516Z,19.4
2015-02-19T07:20:21.846Z,19.4
2015-02-19T07:20:40.159Z,19.4
2015-02-19T07:20:58.487Z,19.4
2015-02-19T07:21:16.174Z,19.4
2015-02-19T07:21:34.629Z,19.4
2015-02-19T07:21:52.301Z,19.4
2015-02-19T07:22:10.629Z,19.4
2015-02-19T07:22:28.959Z,19.4
2015-02-19T07:22:47.288Z,19.4
2015-02-19T07:23:05.741Z,19.4
2015-02-19T07:23:24.072Z,19.4
2015-02-19T07:23:42.400Z,19.4
2015-02-19T07:24:00.728Z,19.5
2015-02-19T07:24:19.058Z,19.4
2015-02-19T07:24:37.386Z,19.5
2015-02-19T07:24:55.714Z,19.5
2015-02-19T07:25:13.386Z,19.5
2015-02-19T07:25:31.060Z,19.5
2015-02-19T07:25:48.732Z,19.5
2015-02-19T07:26:06.404Z,19.5
2015-02-19T07:26:24.078Z,19.5
2015-02-19T07:26:42.406Z,19.5
2015-02-19T07:27:00.734Z,19.5
2015-02-19T07:27:19.065Z,19.5
2015-02-19T07:27:37.393Z,19.5
2015-02-19T07:27:55.065Z,19.5
2015-02-19T07:28:12.096Z,19.5
2015-02-19T07:28:30.428Z,19.5
2015-02-19T07:28:48.099Z,19.5
2015-02-19T07:29:06.428Z,19.5
2015-02-19T07:29:24.758Z,19.5
2015-02-19T07:29:43.086Z,19.5
2015-02-19T07:30:01.414Z,19.5
2015-02-19T07:30:19.742Z,19.5
2015-02-19T07:30:38.057Z,19.5
2015-02-19T07:30:55.744Z,19.5
2015-02-19T07:31:14.072Z,19.5
2015-02-19T07:31:32.387Z,19.5
2015-02-19T07:31:50.730Z,19.5
2015-02-19T07:32:09.059Z,19.5
2015-02-19T07:32:26.718Z,19.6
2015-02-19T07:32:45.046Z,19.6
2015-02-19T07:33:03.374Z,19.6
2015-02-19T07:33:21.704Z,19.6
2015-02-19T07:33:39.876Z,19.6
2015-02-19T07:33:58.220Z,19.6
2015-02-19T07:34:16.548Z,19.5
2015-02-19T07:34:34.878Z,19.5
2015-02-19T07:34:53.206Z,19.5
2015-02-19T07:35:11.659Z,19.5
2015-02-19T07:35:29.989Z,19.5
2015-02-19T07:35:48.318Z,19.5
2015-02-19T07:36:06.630Z,19.5
2015-02-19T07:36:24.961Z,19.5
2015-02-19T07:36:43.305Z,19.5
2015-02-19T07:37:01.617Z,19.6
2015-02-19T07:37:19.289Z,19.6
2015-02-19T07:37:37.620Z,19.6
2015-02-19T07:37:55.949Z,19.6
2015-02-19T07:38:14.292Z,19.6
2015-02-19T07:38:32.607Z,19.6
2015-02-19T07:38:50.951Z,19.6
2015-02-19T07:39:08.622Z,19.6
2015-02-19T07:39:26.953Z,19.6
2015-02-19T07:39:45.265Z,19.6
2015-02-19T07:40:03.593Z,19.6
2015-02-19T07:40:21.921Z,19.6
2015-02-19T07:40:39.595Z,19.6
2015-02-19T07:40:57.923Z,19.6
2015-02-19T07:41:16.251Z,19.6
2015-02-19T07:41:33.926Z,19.6
2015-02-19T07:41:51.614Z,19.6
2015-02-19T07:42:09.286Z,19.6
2015-02-19T07:42:27.616Z,19.6
2015-02-19T07:42:45.944Z,19.6
2015-02-19T07:43:04.272Z,19.6
2015-02-19T07:43:22.600Z,19.6
2015-02-19T07:43:40.930Z,19.6
2015-02-19T07:43:59.258Z,19.6
2015-02-19T07:44:17.587Z,19.6
2015-02-19T07:44:35.917Z,19.6
2015-02-19T07:44:54.245Z,19.6
2015-02-19T07:45:12.573Z,19.6
2015-02-19T07:45:30.887Z,19.6
2015-02-19T07:45:48.575Z,19.6
2015-02-19T07:46:07.028Z,19.6
2015-02-19T07:46:25.359Z,19.6
2015-02-19T07:46:43.687Z,19.6
2015-02-19T07:47:01.344Z,19.6
2015-02-19T07:47:19.031Z,19.6
2015-02-19T07:47:37.361Z,19.6
2015-02-19T07:47:55.689Z,19.6
2015-02-19T07:48:13.361Z,19.6
2015-02-19T07:48:30.395Z,19.6
2015-02-19T07:48:48.708Z,19.6
2015-02-19T07:49:07.036Z,19.6
2015-02-19T07:49:25.364Z,19.6
2015-02-19T07:49:43.694Z,19.6
2015-02-19T07:50:02.022Z,19.6
2015-02-19T07:50:20.351Z,19.6
2015-02-19T07:50:38.682Z,19.6
2015-02-19T07:50:57.010Z,19.6
2015-02-19T07:51:15.338Z,19.6
2015-02-19T07:51:33.668Z,19.6
2015-02-19T07:51:51.996Z,19.6
2015-02-19T07:52:09.684Z,19.6
2015-02-19T07:52:27.356Z,19.6
2015-02-19T07:52:45.686Z,19.6
2015-02-19T07:53:04.014Z,19.6
2015-02-19T07:53:22.342Z,19.6
2015-02-19T07:53:40.797Z,19.7
2015-02-19T07:53:59.266Z,19.6
2015-02-19T07:54:17.594Z,19.7
2015-02-19T07:54:35.925Z,19.7
2015-02-19T07:54:54.253Z,19.6
2015-02-19T07:55:11.925Z,19.7
2015-02-19T07:55:30.253Z,19.7
2015-02-19T07:55:48.599Z,19.7
2015-02-19T07:56:06.927Z,19.7
2015-02-19T07:56:25.255Z,19.7
2015-02-19T07:56:43.586Z,19.7
2015-02-19T07:57:01.914Z,19.7
2015-02-19T07:57:20.243Z,19.7
2015-02-19T07:57:38.571Z,19.7
2015-02-19T07:57:56.245Z,19.7
2015-02-19T07:58:14.573Z,19.7
2015-02-19T07:58:33.026Z,19.7
2015-02-19T07:58:51.356Z,19.7
2015-02-19T07:59:09.684Z,19.7
2015-02-19T07:59:27.372Z,19.7
2015-02-19T07:59:45.686Z,19.7
2015-02-19T08:00:04.030Z,19.7
2015-02-19T08:00:22.358Z,19.7
2015-02-19T08:00:40.689Z,19.7
2015-02-19T08:00:58.345Z,19.7
2015-02-19T08:01:16.673Z,19.7
2015-02-19T08:01:35.017Z,19.7
2015-02-19T08:01:53.348Z,19.7
2015-02-19T08:02:11.676Z,19.7
2015-02-19T08:02:30.005Z,19.7
2015-02-19T08:02:48.335Z,19.7
2015-02-19T08:03:06.663Z,19.7
2015-02-19T08:03:24.975Z,19.7
2015-02-19T08:03:43.305Z,19.7
2015-02-19T08:04:01.634Z,19.7
2015-02-19T08:04:19.962Z,19.7
2015-02-19T08:04:38.290Z,19.7
2015-02-19T08:04:55.979Z,19.7
2015-02-19T08:05:14.307Z,19.7
2015-02-19T08:05:31.979Z,19.7
2015-02-19T08:05:50.310Z,19.7
2015-02-19T08:06:07.982Z,19.7
2015-02-19T08:06:26.310Z,19.7
2015-02-19T08:06:44.641Z,19.7
2015-02-19T08:07:02.984Z,19.7
2015-02-19T08:07:21.297Z,19.7
2015-02-19T08:07:39.641Z,19.7
2015-02-19T08:07:57.971Z,19.7
2015-02-19T08:08:16.299Z,19.7
2015-02-19T08:08:34.627Z,19.7
2015-02-19T08:08:52.957Z,19.7
2015-02-19T08:09:11.426Z,19.7
2015-02-19T08:09:29.098Z,19.7
2015-02-19T08:09:46.773Z,19.7
2015-02-19T08:10:05.398Z,19.7
2015-02-19T08:10:23.726Z,19.7
2015-02-19T08:10:41.415Z,19.7
2015-02-19T08:10:59.743Z,19.7
2015-02-19T08:11:18.071Z,19.8
2015-02-19T08:11:35.743Z,19.7
2015-02-19T08:11:54.073Z,19.7
2015-02-19T08:12:11.745Z,19.7
2015-02-19T08:12:30.073Z,19.7
2015-02-19T08:12:47.811Z,19.7
2015-02-19T08:13:06.248Z,19.7
2015-02-19T08:13:24.592Z,19.7
2015-02-19T08:13:42.920Z,19.8
2015-02-19T08:14:01.250Z,19.7
2015-02-19T08:14:19.578Z,19.7
2015-02-19T08:14:37.907Z,19.7
2015-02-19T08:14:56.237Z,19.7
2015-02-19T08:15:14.565Z,19.7
2015-02-19T08:15:32.877Z,19.7
2015-02-19T08:15:50.568Z,19.8
2015-02-19T08:16:08.240Z,19.7
2015-02-19T08:16:26.568Z,19.7
2015-02-19T08:16:44.896Z,19.8
2015-02-19T08:17:03.226Z,19.7
2015-02-19T08:17:21.539Z,19.7
2015-02-19T08:17:39.226Z,19.8
2015-02-19T08:17:56.884Z,19.8
2015-02-19T08:18:15.228Z,19.8
2015-02-19T08:18:33.556Z,19.8
2015-02-19T08:18:51.215Z,19.8
2015-02-19T08:19:08.887Z,19.8
2015-02-19T08:19:27.215Z,19.8
2015-02-19T08:19:45.544Z,19.8
2015-02-19T08:20:03.889Z,19.8
2015-02-19T08:20:22.217Z,19.8
2015-02-19T08:20:40.546Z,19.8
2015-02-19T08:20:58.876Z,19.8
2015-02-19T08:21:15.891Z,19.8
2015-02-19T08:21:34.219Z,19.8
2015-02-19T08:21:52.551Z,19.8
2015-02-19T08:22:10.238Z,19.7
2015-02-19T08:22:28.566Z,19.7
2015-02-19T08:22:46.894Z,19.8
2015-02-19T08:23:03.912Z,19.8
2015-02-19T08:23:21.584Z,19.8
2015-02-19T08:23:39.912Z,19.7
2015-02-19T08:23:58.242Z,19.8
2015-02-19T08:24:16.570Z,19.8
2015-02-19T08:24:34.242Z,19.8
2015-02-19T08:24:52.055Z,19.8
2015-02-19T08:25:10.387Z,19.8
2015-02-19T08:25:28.715Z,19.8
2015-02-19T08:25:47.090Z,19.8
2015-02-19T08:26:05.432Z,19.9
2015-02-19T08:26:23.807Z,19.9
2015-02-19T08:26:42.166Z,19.9
2015-02-19T08:27:00.509Z,19.9
2015-02-19T08:27:18.838Z,19.9
2015-02-19T08:27:37.150Z,19.9
2015-02-19T08:27:55.492Z,19.9
2015-02-19T08:28:13.820Z,19.9
2015-02-19T08:28:32.289Z,19.9
2015-02-19T08:28:50.617Z,19.9
2015-02-19T08:29:08.959Z,19.9
2015-02-19T08:29:27.287Z,19.9
2015-02-19T08:29:45.616Z,19.8
2015-02-19T08:30:03.957Z,19.8
2015-02-19T08:30:21.629Z,19.8
2015-02-19T08:30:39.300Z,19.8
2015-02-19T08:30:57.637Z,19.9
2015-02-19T08:31:15.965Z,19.8
2015-02-19T08:31:33.637Z,19.8
2015-02-19T08:31:51.965Z,19.8
2015-02-19T08:32:10.299Z,19.8
2015-02-19T08:32:28.627Z,19.9
2015-02-19T08:32:46.299Z,19.8
2015-02-19T08:33:04.634Z,19.8
2015-02-19T08:33:22.962Z,19.9
2015-02-19T08:33:41.290Z,19.9
2015-02-19T08:33:59.625Z,19.9
2015-02-19T08:34:18.078Z,19.9
2015-02-19T08:34:36.407Z,19.9
2015-02-19T08:34:54.735Z,19.9
2015-02-19T08:35:12.428Z,19.8
2015-02-19T08:35:30.084Z,19.9
2015-02-19T08:35:48.413Z,19.8
2015-02-19T08:36:06.745Z,19.8
2015-02-19T08:36:25.073Z,19.8
2015-02-19T08:36:42.745Z,19.8
2015-02-19T08:37:00.421Z,19.8
2015-02-19T08:37:18.092Z,19.8
2015-02-19T08:37:36.421Z,19.8
2015-02-19T08:37:54.749Z,19.8
2015-02-19T08:38:13.081Z,19.8
2015-02-19T08:38:31.409Z,19.8
2015-02-19T08:38:49.737Z,19.8
2015-02-19T08:39:08.069Z,19.8
2015-02-19T08:39:25.741Z,19.8
2015-02-19T08:39:44.085Z,19.8
2015-02-19T08:40:02.401Z,19.8
2015-02-19T08:40:20.089Z,19.8
2015-02-19T08:40:38.417Z,19.8
2015-02-19T08:40:56.089Z,19.8
2015-02-19T08:41:14.420Z,19.8
2015-02-19T08:41:32.092Z,19.8
2015-02-19T08:41:50.420Z,19.8
2015-02-19T08:42:08.219Z,19.8
2015-02-19T08:42:26.563Z,19.9
2015-02-19T08:42:44.891Z,19.8
2015-02-19T08:43:03.222Z,19.8
2015-02-19T08:43:20.878Z,19.8
2015-02-19T08:43:39.347Z,19.8
2015-02-19T08:43:57.675Z,19.8
2015-02-19T08:44:16.005Z,19.8
2015-02-19T08:44:34.333Z,19.9
2015-02-19T08:44:52.661Z,19.8
2015-02-19T08:45:10.993Z,19.8
2015-02-19T08:45:29.322Z,19.9
2015-02-19T08:45:47.650Z,19.9
2015-02-19T08:46:05.980Z,19.9
2015-02-19T08:46:24.308Z,19.9
2015-02-19T08:46:42.620Z,19.9
2015-02-19T08:47:00.310Z,19.9
2015-02-19T08:47:17.982Z,19.9
2015-02-19T08:47:36.310Z,19.9
2015-02-19T08:47:54.638Z,19.9
2015-02-19T08:48:12.313Z,19.9
2015-02-19T08:48:30.641Z,19.9
2015-02-19T08:48:48.969Z,19.9
2015-02-19T08:49:07.300Z,19.9
2015-02-19T08:49:25.628Z,19.9
2015-02-19T08:49:43.941Z,19.9
2015-02-19T08:50:02.272Z,19.9
2015-02-19T08:50:20.600Z,19.9
2015-02-19T08:50:38.272Z,19.9
2015-02-19T08:50:56.600Z,19.9
2015-02-19T08:51:14.930Z,19.9
2015-02-19T08:51:33.258Z,19.9
2015-02-19T08:51:51.587Z,19.9
2015-02-19T08:52:09.918Z,19.9
2015-02-19T08:52:28.246Z,19.9
2015-02-19T08:52:46.590Z,19.9
2015-02-19T08:53:05.060Z,19.9
2015-02-19T08:53:23.373Z,19.9
2015-02-19T08:53:41.701Z,19.9
2015-02-19T08:54:00.029Z,19.9
2015-02-19T08:54:18.359Z,19.9
2015-02-19T08:54:35.375Z,19.9
2015-02-19T08:54:53.703Z,19.9
2015-02-19T08:55:12.033Z,19.9
2015-02-19T08:55:30.361Z,19.9
2015-02-19T08:55:48.049Z,19.9
2015-02-19T08:56:06.379Z,19.9
2015-02-19T08:56:24.707Z,19.9
2015-02-19T08:56:43.035Z,19.9
2015-02-19T08:57:00.691Z,19.9
2015-02-19T08:57:19.038Z,19.9
2015-02-19T08:57:37.366Z,19.9
2015-02-19T08:57:55.694Z,19.9
2015-02-19T08:58:14.024Z,19.9
2015-02-19T08:58:32.353Z,19.9
2015-02-19T08:58:50.681Z,19.9
2015-02-19T08:59:09.011Z,19.9
2015-02-19T08:59:27.480Z,19.9
2015-02-19T08:59:45.792Z,19.9
2015-02-19T09:00:02.823Z,19.9
2015-02-19T09:00:20.529Z,19.8
2015-02-19T09:00:38.858Z,19.9
2015-02-19T09:00:57.186Z,19.9
2015-02-19T09:01:15.516Z,19.9
2015-02-19T09:01:33.188Z,19.9
2015-02-19T09:01:51.516Z,19.9
2015-02-19T09:02:09.846Z,19.9
2015-02-19T09:02:28.174Z,19.9
2015-02-19T09:02:45.862Z,19.9
2015-02-19T09:03:04.190Z,19.9
2015-02-19T09:03:22.521Z,19.9
2015-02-19T09:03:40.177Z,19.9
2015-02-19T09:03:58.646Z,19.9
2015-02-19T09:04:16.320Z,19.9
2015-02-19T09:04:34.648Z,19.9
2015-02-19T09:04:52.320Z,19.9
2015-02-19T09:05:10.651Z,19.9
2015-02-19T09:05:28.979Z,19.9
2015-02-19T09:05:46.651Z,19.9
2015-02-19T09:06:04.979Z,19.9
2015-02-19T09:06:23.309Z,19.9
2015-02-19T09:06:41.637Z,19.9
2015-02-19T09:06:59.981Z,19.9
2015-02-19T09:07:18.312Z,19.9
2015-02-19T09:07:35.984Z,19.9
2015-02-19T09:07:54.312Z,19.9
2015-02-19T09:08:12.627Z,19.9
2015-02-19T09:08:30.986Z,19.9
2015-02-19T09:08:49.314Z,19.9
2015-02-19T09:09:07.642Z,19.9
2015-02-19T09:09:25.441Z,19.9
2015-02-19T09:09:43.769Z,19.9
2015-02-19T09:10:01.441Z,19.9
2015-02-19T09:10:19.771Z,19.9
2015-02-19T09:10:37.443Z,19.9
2015-02-19T09:10:55.771Z,19.9
2015-02-19T09:11:14.101Z,19.9
2015-02-19T09:11:32.445Z,19.9
2015-02-19T09:11:50.758Z,19.9
2015-02-19T09:12:09.086Z,19.9
2015-02-19T09:12:27.417Z,19.9
2015-02-19T09:12:45.745Z,19.9
2015-02-19T09:13:04.073Z,19.9
2015-02-19T09:13:22.419Z,19.9
2015-02-19T09:13:40.075Z,19.9
2015-02-19T09:13:57.747Z,19.9
2015-02-19T09:14:16.077Z,19.9
2015-02-19T09:14:34.405Z,19.9
2015-02-19T09:14:52.733Z,19.9
2015-02-19T09:15:11.064Z,19.9
2015-02-19T09:15:29.393Z,19.9
2015-02-19T09:15:47.721Z,19.9
2015-02-19T09:16:06.064Z,19.9
2015-02-19T09:16:23.738Z,19.9
2015-02-19T09:16:42.066Z,19.9
2015-02-19T09:17:00.395Z,19.9
2015-02-19T09:17:18.850Z,19.9
2015-02-19T09:17:37.178Z,19.9
2015-02-19T09:17:55.506Z,19.9
2015-02-19T09:18:13.834Z,19.9
2015-02-19T09:18:30.868Z,19.9
2015-02-19T09:18:49.181Z,19.9
2015-02-19T09:19:06.868Z,19.9
2015-02-19T09:19:25.198Z,19.9
2015-02-19T09:19:42.870Z,19.9
2015-02-19T09:20:01.198Z,19.9
2015-02-19T09:20:18.873Z,19.9
2015-02-19T09:20:37.201Z,19.9
2015-02-19T09:20:54.873Z,19.9
2015-02-19T09:21:13.201Z,19.9
2015-02-19T09:21:31.532Z,19.9
2015-02-19T09:21:49.860Z,19.9
2015-02-19T09:22:08.188Z,19.9
2015-02-19T09:22:26.518Z,19.9
2015-02-19T09:22:44.846Z,19.9
2015-02-19T09:23:03.174Z,19.9
2015-02-19T09:23:21.505Z,19.9
2015-02-19T09:23:39.833Z,19.9
2015-02-19T09:23:58.162Z,19.9
2015-02-19T09:24:16.490Z,19.9
2015-02-19T09:24:34.820Z,19.9
2015-02-19T09:24:53.148Z,19.9
2015-02-19T09:25:11.492Z,19.9
2015-02-19T09:25:29.822Z,19.9
2015-02-19T09:25:48.150Z,19.9
2015-02-19T09:26:06.478Z,19.9
2015-02-19T09:26:24.169Z,19.9
2015-02-19T09:26:42.497Z,19.9
2015-02-19T09:27:00.169Z,19.9
2015-02-19T09:27:18.497Z,19.9
2015-02-19T09:27:36.827Z,19.9
2015-02-19T09:27:55.155Z,19.9
2015-02-19T09:28:13.608Z,19.9
2015-02-19T09:28:31.939Z,19.9
2015-02-19T09:28:50.267Z,19.9
2015-02-19T09:29:08.611Z,19.9
2015-02-19T09:29:26.940Z,19.9
2015-02-19T09:29:45.268Z,19.9
2015-02-19T09:30:03.596Z,19.9
2015-02-19T09:30:22.050Z,19.9
2015-02-19T09:30:40.381Z,19.9
2015-02-19T09:30:58.053Z,19.9
2015-02-19T09:31:16.381Z,19.9
2015-02-19T09:31:34.711Z,19.9
2015-02-19T09:31:53.039Z,19.9
2015-02-19T09:32:11.367Z,19.9
2015-02-19T09:32:29.042Z,19.9
2015-02-19T09:32:47.370Z,19.9
2015-02-19T09:33:05.698Z,19.9
2015-02-19T09:33:24.013Z,19.9
2015-02-19T09:33:41.700Z,19.9
2015-02-19T09:34:00.028Z,19.9
2015-02-19T09:34:17.700Z,19.9
2015-02-19T09:34:36.030Z,19.9
2015-02-19T09:34:54.358Z,19.9
2015-02-19T09:35:12.687Z,19.9
2015-02-19T09:35:31.018Z,19.9
2015-02-19T09:35:49.346Z,19.9
2015-02-19T09:36:07.674Z,19.9
2015-02-19T09:36:25.348Z,19.9
2015-02-19T09:36:43.676Z,19.9
2015-02-19T09:37:02.004Z,19.9
2015-02-19T09:37:20.332Z,19.9
2015-02-19T09:37:38.006Z,20
2015-02-19T09:37:56.334Z,20
2015-02-19T09:38:14.662Z,20
2015-02-19T09:38:32.977Z,20
2015-02-19T09:38:51.336Z,20
2015-02-19T09:39:09.664Z,20
2015-02-19T09:39:27.995Z,20
2015-02-19T09:39:46.324Z,20
2015-02-19T09:40:04.652Z,20
2015-02-19T09:40:22.980Z,20
2015-02-19T09:40:41.293Z,20
2015-02-19T09:40:58.965Z,20
2015-02-19T09:41:17.418Z,20
2015-02-19T09:41:35.749Z,20
2015-02-19T09:41:54.078Z,20
2015-02-19T09:42:12.406Z,20
2015-02-19T09:42:30.080Z,20
2015-02-19T09:42:48.408Z,20
2015-02-19T09:43:06.720Z,20
2015-02-19T09:43:25.064Z,20
2015-02-19T09:43:43.379Z,20
2015-02-19T09:44:01.708Z,20
2015-02-19T09:44:20.036Z,19.9
2015-02-19T09:44:38.367Z,19.9
2015-02-19T09:44:56.711Z,20
2015-02-19T09:45:15.039Z,20
2015-02-19T09:45:33.352Z,19.9
2015-02-19T09:45:51.680Z,20
2015-02-19T09:46:10.008Z,19.9
2015-02-19T09:46:28.340Z,20
2015-02-19T09:46:45.996Z,19.9
2015-02-19T09:47:03.668Z,20
2015-02-19T09:47:21.996Z,19.9
2015-02-19T09:47:39.685Z,20
2015-02-19T09:47:57.998Z,19.9
2015-02-19T09:48:15.795Z,19.9
2015-02-19T09:48:33.484Z,19.9
2015-02-19T09:48:51.797Z,19.9
2015-02-19T09:49:09.469Z,19.9
2015-02-19T09:49:27.140Z,19.9
2015-02-19T09:50:04.159Z,20
2015-02-19T09:50:22.487Z,19.9
2015-02-19T09:50:40.817Z,19.9
2015-02-19T09:50:59.145Z,19.9
2015-02-19T09:51:17.489Z,20
2015-02-19T09:51:35.804Z,20
2015-02-19T09:51:53.476Z,20
2015-02-19T09:52:11.804Z,20
2015-02-19T09:52:29.479Z,20
2015-02-19T09:52:47.807Z,20
2015-02-19T09:53:06.119Z,20
2015-02-19T09:53:24.447Z,20
2015-02-19T09:53:42.809Z,20
2015-02-19T09:54:01.137Z,20
2015-02-19T09:54:18.824Z,20
2015-02-19T09:54:37.155Z,20
2015-02-19T09:54:55.484Z,20
2015-02-19T09:55:13.796Z,20
2015-02-19T09:55:32.126Z,20
2015-02-19T09:55:50.470Z,20
2015-02-19T09:56:08.782Z,20
2015-02-19T09:56:26.470Z,20
2015-02-19T09:56:44.144Z,20
2015-02-19T09:57:01.816Z,20
2015-02-19T09:57:18.847Z,20
2015-02-19T09:57:37.162Z,20
2015-02-19T09:57:55.491Z,20
2015-02-19T09:58:13.819Z,20
2015-02-19T09:58:31.491Z,20
2015-02-19T09:58:49.820Z,20
2015-02-19T09:59:08.148Z,20
2015-02-19T09:59:26.476Z,20
2015-02-19T09:59:44.807Z,20
2015-02-19T10:00:03.135Z,20
2015-02-19T10:00:21.463Z,20
2015-02-19T10:00:39.793Z,20.1
2015-02-19T10:00:58.122Z,20.1
2015-02-19T10:01:15.793Z,20.1
2015-02-19T10:01:34.124Z,20
2015-02-19T10:01:52.452Z,20
2015-02-19T10:02:10.124Z,20
2015-02-19T10:02:27.795Z,20.1
2015-02-19T10:02:46.158Z,20
2015-02-19T10:03:04.455Z,20
2015-02-19T10:03:22.783Z,20.1
2015-02-19T10:03:41.113Z,20.1
2015-02-19T10:03:59.441Z,20.1
2015-02-19T10:04:16.457Z,20
2015-02-19T10:04:34.788Z,20
2015-02-19T10:04:53.100Z,20
2015-02-19T10:05:11.428Z,20
2015-02-19T10:05:29.757Z,20
2015-02-19T10:05:48.087Z,20
2015-02-19T10:06:06.399Z,20
2015-02-19T10:06:24.727Z,20
2015-02-19T10:06:42.401Z,20
2015-02-19T10:07:00.745Z,20
2015-02-19T10:07:18.401Z,20
2015-02-19T10:07:36.731Z,20
2015-02-19T10:07:55.059Z,20
2015-02-19T10:08:13.388Z,20
2015-02-19T10:08:31.716Z,20
2015-02-19T10:08:50.047Z,20
2015-02-19T10:09:08.375Z,20
2015-02-19T10:09:26.047Z,20
2015-02-19T10:09:44.377Z,20
2015-02-19T10:10:02.705Z,20
2015-02-19T10:10:21.158Z,20
2015-02-19T10:10:39.488Z,20
2015-02-19T10:10:57.285Z,20
2015-02-19T10:11:14.957Z,20
2015-02-19T10:11:33.285Z,20
2015-02-19T10:11:51.615Z,20
2015-02-19T10:12:09.959Z,20
2015-02-19T10:12:28.272Z,20
2015-02-19T10:12:46.603Z,20
2015-02-19T10:13:04.931Z,20
2015-02-19T10:13:23.259Z,20
2015-02-19T10:13:41.714Z,20
2015-02-19T10:14:00.167Z,20
2015-02-19T10:14:18.620Z,20
2015-02-19T10:14:36.948Z,20
2015-02-19T10:14:54.623Z,20
2015-02-19T10:15:12.295Z,20
2015-02-19T10:15:30.623Z,20
2015-02-19T10:15:48.954Z,20
2015-02-19T10:16:06.626Z,20
2015-02-19T10:16:24.954Z,20
2015-02-19T10:16:43.410Z,20
2015-02-19T10:17:01.081Z,20
2015-02-19T10:17:19.410Z,20
2015-02-19T10:17:37.738Z,20
2015-02-19T10:17:56.068Z,20
2015-02-19T10:18:14.380Z,20
2015-02-19T10:18:32.708Z,20
2015-02-19T10:18:50.382Z,20
2015-02-19T10:19:08.710Z,20
2015-02-19T10:19:27.164Z,20
2015-02-19T10:19:44.838Z,20
2015-02-19T10:20:03.292Z,20
2015-02-19T10:20:21.620Z,20
2015-02-19T10:20:39.950Z,20
2015-02-19T10:20:58.262Z,20
2015-02-19T10:21:16.590Z,20
2015-02-19T10:21:34.919Z,20
2015-02-19T10:21:53.249Z,20
2015-02-19T10:22:11.561Z,20
2015-02-19T10:22:29.249Z,20
2015-02-19T10:22:47.049Z,20
2015-02-19T10:23:05.377Z,20
2015-02-19T10:23:23.689Z,20
2015-02-19T10:23:42.160Z,20
2015-02-19T10:24:00.488Z,20
2015-02-19T10:24:18.160Z,20
2015-02-19T10:24:35.847Z,20
2015-02-19T10:24:53.506Z,20
2015-02-19T10:25:11.834Z,20
2015-02-19T10:25:30.162Z,20
2015-02-19T10:25:48.493Z,20
2015-02-19T10:26:06.821Z,20
2015-02-19T10:26:25.165Z,20
2015-02-19T10:26:43.478Z,20
2015-02-19T10:27:01.807Z,20
2015-02-19T10:27:20.135Z,20
2015-02-19T10:27:38.463Z,20
2015-02-19T10:27:56.138Z,20
2015-02-19T10:28:13.810Z,20
2015-02-19T10:28:32.278Z,20
2015-02-19T10:28:49.952Z,20
2015-02-19T10:29:08.405Z,20
2015-02-19T10:29:26.733Z,20
2015-02-19T10:29:44.408Z,20
2015-02-19T10:30:02.736Z,20
2015-02-19T10:30:21.065Z,20
2015-02-19T10:30:39.393Z,20
2015-02-19T10:30:57.707Z,20
2015-02-19T10:31:16.035Z,20
2015-02-19T10:31:34.363Z,20
2015-02-19T10:31:52.695Z,20
2015-02-19T10:32:10.366Z,20
2015-02-19T10:32:28.679Z,20
2015-02-19T10:32:47.009Z,20
2015-02-19T10:33:05.337Z,20
2015-02-19T10:33:23.665Z,20
2015-02-19T10:33:41.993Z,19.9
2015-02-19T10:34:00.324Z,19.8
2015-02-19T10:34:18.652Z,19.7
2015-02-19T10:34:36.964Z,19.6
2015-02-19T10:34:55.294Z,19.3
2015-02-19T10:35:13.622Z,19.1
2015-02-19T10:35:31.951Z,19.1
2015-02-19T10:35:50.281Z,19
2015-02-19T10:36:07.953Z,19
2015-02-19T10:36:26.281Z,19
2015-02-19T10:36:44.609Z,19.1
2015-02-19T10:37:02.267Z,19.1
2015-02-19T10:37:20.595Z,19.1
2015-02-19T10:37:38.939Z,19.1
2015-02-19T10:37:57.254Z,19.2
2015-02-19T10:38:15.583Z,19.2
2015-02-19T10:38:33.911Z,19.3
2015-02-19T10:38:52.257Z,19.3
2015-02-19T10:39:10.586Z,19.4
2015-02-19T10:39:28.914Z,19.4
2015-02-19T10:39:47.244Z,19.4
2015-02-19T10:40:05.556Z,19.5
2015-02-19T10:40:23.900Z,19.5
2015-02-19T10:40:41.572Z,19.5
2015-02-19T10:40:59.246Z,19.5
2015-02-19T10:41:16.918Z,19.5
2015-02-19T10:41:34.590Z,19.6
2015-02-19T10:41:52.920Z,19.6
2015-02-19T10:42:11.248Z,19.6
2015-02-19T10:42:28.920Z,19.6
2015-02-19T10:42:47.250Z,19.6
2015-02-19T10:43:05.578Z,19.7
2015-02-19T10:43:23.906Z,19.7
2015-02-19T10:43:41.578Z,19.7
2015-02-19T10:43:59.909Z,19.7
2015-02-19T10:44:17.597Z,19.7
2015-02-19T10:44:35.925Z,19.8
2015-02-19T10:44:54.256Z,19.7
2015-02-19T10:45:11.928Z,19.8
2015-02-19T10:45:30.256Z,19.7
2015-02-19T10:45:47.928Z,19.8
2015-02-19T10:46:06.257Z,19.8
2015-02-19T10:46:24.585Z,19.8
2015-02-19T10:46:42.913Z,19.8
2015-02-19T10:47:00.588Z,19.8
2015-02-19T10:47:18.916Z,19.8
2015-02-19T10:47:37.244Z,19.8
2015-02-19T10:47:55.560Z,19.8
2015-02-19T10:48:13.888Z,19.8
2015-02-19T10:48:31.560Z,19.8
2015-02-19T10:48:49.889Z,19.8
2015-02-19T10:49:08.217Z,19.8
2015-02-19T10:49:26.545Z,19.8
2015-02-19T10:49:44.873Z,19.8
2015-02-19T10:50:03.204Z,19.8
2015-02-19T10:50:21.532Z,19.8
2015-02-19T10:50:39.861Z,19.8
2015-02-19T10:50:58.191Z,19.8
2015-02-19T10:51:16.534Z,19.8
2015-02-19T10:51:34.847Z,19.8
2015-02-19T10:51:53.177Z,19.8
2015-02-19T10:52:11.505Z,19.8
2015-02-19T10:52:29.818Z,19.8
2015-02-19T10:52:46.849Z,19.8
2015-02-19T10:53:05.164Z,19.8
2015-02-19T10:53:23.508Z,19.8
2015-02-19T10:53:41.821Z,19.8
2015-02-19T10:54:00.151Z,19.8
2015-02-19T10:54:18.479Z,19.8
2015-02-19T10:54:36.807Z,19.8
2015-02-19T10:54:55.138Z,19.8
2015-02-19T10:55:13.607Z,19.8
2015-02-19T10:55:31.935Z,19.8
2015-02-19T10:55:50.263Z,19.8
2015-02-19T10:56:08.593Z,19.8
2015-02-19T10:56:26.921Z,19.8
2015-02-19T10:56:45.250Z,19.9
2015-02-19T10:57:03.595Z,19.8
2015-02-19T10:57:21.908Z,19.8
2015-02-19T10:57:40.236Z,19.8
2015-02-19T10:57:57.925Z,19.8
2015-02-19T10:58:16.238Z,19.9
2015-02-19T10:58:34.582Z,19.9
2015-02-19T10:58:52.910Z,19.9
2015-02-19T10:59:11.240Z,19.9
2015-02-19T10:59:28.912Z,19.9
2015-02-19T10:59:46.584Z,19.9
2015-02-19T11:00:04.259Z,19.9
2015-02-19T11:00:22.602Z,19.9
2015-02-19T11:00:40.915Z,19.9
2015-02-19T11:00:59.245Z,19.9
2015-02-19T11:01:17.573Z,19.9
2015-02-19T11:01:35.901Z,19.9
2015-02-19T11:01:54.229Z,19.9
2015-02-19T11:02:12.559Z,19.9
2015-02-19T11:02:30.888Z,19.9
2015-02-19T11:02:49.216Z,19.9
2015-02-19T11:03:06.891Z,19.9
2015-02-19T11:03:25.219Z,20
2015-02-19T11:03:43.547Z,20
2015-02-19T11:04:01.878Z,20
2015-02-19T11:04:19.550Z,20
2015-02-19T11:04:37.878Z,20
2015-02-19T11:04:56.208Z,20
2015-02-19T11:05:14.536Z,20
2015-02-19T11:05:32.849Z,20
2015-02-19T11:05:51.177Z,20
2015-02-19T11:06:09.507Z,20
2015-02-19T11:06:27.694Z,20
2015-02-19T11:06:46.007Z,20
2015-02-19T11:07:04.337Z,20
2015-02-19T11:07:22.650Z,20
2015-02-19T11:07:40.978Z,20
2015-02-19T11:07:59.309Z,20
2015-02-19T11:08:16.981Z,20
2015-02-19T11:08:35.309Z,20
2015-02-19T11:08:53.762Z,20
2015-02-19T11:09:12.092Z,20
2015-02-19T11:09:30.420Z,20
2015-02-19T11:09:48.748Z,20
2015-02-19T11:10:07.063Z,20
2015-02-19T11:10:25.391Z,20
2015-02-19T11:10:43.719Z,20
2015-02-19T11:11:02.066Z,20
2015-02-19T11:11:20.378Z,20
2015-02-19T11:11:38.722Z,20
2015-02-19T11:11:57.050Z,20
2015-02-19T11:12:15.380Z,20
2015-02-19T11:12:33.708Z,20
2015-02-19T11:12:52.037Z,20
2015-02-19T11:13:10.367Z,20
2015-02-19T11:13:28.695Z,20
2015-02-19T11:13:47.023Z,20
2015-02-19T11:14:04.682Z,20
2015-02-19T11:14:22.198Z,20
2015-02-19T11:14:40.573Z,20
2015-02-19T11:14:58.901Z,20
2015-02-19T11:15:17.231Z,20
2015-02-19T11:15:35.559Z,20
2015-02-19T11:15:53.903Z,20
2015-02-19T11:16:12.233Z,20
2015-02-19T11:16:30.561Z,20
2015-02-19T11:16:48.889Z,20
2015-02-19T11:17:07.204Z,20
2015-02-19T11:17:25.657Z,20